Time;durP1;ratioP1;P1;durP2;ratioP2;P2;SDS_P1;SDS_P2;PMS_P1;PMS_P2;Temp;Humidity;BMP_temperature;BMP_pressure;BME280_temperature;BME280_humidity;BME280_pressure;Samples;Min_cycle;Max_cycle;Signal;HPM_P1;HPM_P2
2022/07/09 00:00:40;;;;;;;2.75;1.00;;;26.80;99.90;;;;;;4171492;28;20037;-70
2022/07/09 00:02:45;;;;;;;2.17;1.17;;;26.80;99.90;;;;;;4163436;28;20044;-70
2022/07/09 00:05:00;;;;;;;2.42;1.35;;;26.80;99.90;;;;;;4147809;28;20451;-70
2022/07/09 00:07:09;;;;;;;1.40;0.88;;;26.80;99.90;;;;;;4174082;28;20032;-67
2022/07/09 00:09:14;;;;;;;2.17;0.93;;;26.80;99.90;;;;;;4165219;28;20143;-67
2022/07/09 00:11:18;;;;;;;3.05;1.58;;;26.90;99.90;;;;;;4164976;28;20063;-67
2022/07/09 00:13:24;;;;;;;4.03;1.98;;;26.90;99.90;;;;;;4178375;28;20037;-67
2022/07/09 00:15:34;;;;;;;5.65;1.52;;;26.90;99.90;;;;;;4172949;28;20051;-67
2022/07/09 00:17:40;;;;;;;3.47;1.50;;;26.80;99.90;;;;;;4166222;28;20066;-67
2022/07/09 00:19:45;;;;;;;2.08;1.30;;;26.70;99.90;;;;;;4175830;28;20041;-67
2022/07/09 00:21:52;;;;;;;2.42;1.00;;;26.80;99.90;;;;;;4175246;28;20718;-67
2022/07/09 00:23:59;;;;;;;1.35;1.02;;;26.90;99.90;;;;;;4174619;28;20045;-68
2022/07/09 00:26:08;;;;;;;1.98;1.20;;;26.90;99.90;;;;;;4177298;28;20699;-67
2022/07/09 00:28:19;;;;;;;3.08;1.20;;;26.90;99.90;;;;;;4177798;28;20098;-68
2022/07/09 00:30:28;;;;;;;2.15;1.27;;;26.90;99.90;;;;;;4177332;28;20049;-68
2022/07/09 00:32:36;;;;;;;1.77;1.20;;;27.00;99.90;;;;;;4174927;28;20061;-68
2022/07/09 00:34:52;;;;;;;3.08;1.63;;;27.00;99.90;;;;;;4178508;28;20148;-67
2022/07/09 00:37:17;;;;;;;5.30;1.38;;;27.00;99.90;;;;;;4165133;28;20071;-67
2022/07/09 00:39:39;;;;;;;1.92;1.27;;;27.00;99.90;;;;;;4178405;28;20063;-67
2022/07/09 00:41:47;;;;;;;3.92;2.30;;;27.10;99.90;;;;;;4176232;28;20048;-67
2022/07/09 00:43:55;;;;;;;2.88;2.10;;;27.20;99.90;;;;;;4178211;28;20156;-67
2022/07/09 00:46:03;;;;;;;3.38;1.70;;;27.10;99.90;;;;;;4129896;28;20786;-67
2022/07/09 00:48:09;;;;;;;2.42;1.30;;;27.20;99.90;;;;;;4179218;28;20572;-67
2022/07/09 00:50:17;;;;;;;2.38;1.27;;;27.20;99.90;;;;;;4175970;28;20079;-67
2022/07/09 00:52:24;;;;;;;5.07;4.55;;;27.30;99.90;;;;;;4178730;28;20064;-67
2022/07/09 00:54:31;;;;;;;5.03;3.38;;;27.30;99.90;;;;;;4179296;28;20063;-67
2022/07/09 00:56:37;;;;;;;6.38;3.08;;;27.30;99.90;;;;;;4175406;28;20045;-67
2022/07/09 00:58:48;;;;;;;6.57;3.05;;;27.30;99.90;;;;;;4177083;28;20045;-68
2022/07/09 01:00:52;;;;;;;4.55;2.00;;;27.40;99.90;;;;;;4177215;28;20051;-67
2022/07/09 01:03:00;;;;;;;2.65;1.40;;;27.40;99.90;;;;;;4176217;28;20045;-68
2022/07/09 01:05:07;;;;;;;3.72;1.40;;;27.40;99.90;;;;;;4178497;28;20128;-67
2022/07/09 01:07:17;;;;;;;3.00;1.60;;;27.50;99.90;;;;;;4190371;28;20064;-68
2022/07/09 01:09:27;;;;;;;2.45;1.15;;;27.50;99.90;;;;;;4166459;28;20776;-68
2022/07/09 01:11:36;;;;;;;3.58;1.20;;;27.50;99.90;;;;;;4173524;28;20037;-67
2022/07/09 01:13:42;;;;;;;2.25;1.10;;;27.50;99.90;;;;;;4173393;28;20049;-67
2022/07/09 01:15:54;;;;;;;1.55;1.15;;;27.60;99.90;;;;;;4174000;28;20493;-67
2022/07/09 01:18:02;;;;;;;1.88;1.20;;;27.50;99.90;;;;;;4172218;28;20083;-67
2022/07/09 01:20:13;;;;;;;2.47;1.20;;;27.70;99.90;;;;;;4177667;28;20140;-67
2022/07/09 01:22:18;;;;;;;4.82;1.48;;;27.70;99.90;;;;;;4178623;28;20045;-68
2022/07/09 01:24:23;;;;;;;2.95;1.40;;;27.70;99.90;;;;;;4176347;28;20045;-69
2022/07/09 01:26:28;;;;;;;3.90;1.27;;;27.80;99.90;;;;;;4176610;28;20065;-69
2022/07/09 01:28:35;;;;;;;2.33;1.13;;;27.90;99.90;;;;;;4177494;28;20053;-68
2022/07/09 01:30:41;;;;;;;2.15;1.00;;;27.90;99.90;;;;;;4167824;28;20127;-70
2022/07/09 01:32:48;;;;;;;4.72;1.48;;;27.80;99.90;;;;;;4173548;28;20033;-72
2022/07/09 01:34:58;;;;;;;2.90;1.00;;;27.90;99.90;;;;;;4165368;28;20168;-68
2022/07/09 01:37:06;;;;;;;2.95;1.17;;;27.90;99.90;;;;;;4156300;28;20140;-70
2022/07/09 01:39:11;;;;;;;2.45;1.10;;;27.90;99.90;;;;;;4147350;28;20038;-69
2022/07/09 01:41:17;;;;;;;2.88;1.77;;;27.90;99.90;;;;;;4162410;28;20439;-67
2022/07/09 01:43:23;;;;;;;5.07;1.30;;;28.10;99.90;;;;;;4173819;28;20044;-68
2022/07/09 01:45:34;;;;;;;5.60;1.10;;;28.20;99.90;;;;;;4161220;28;20302;-67
2022/07/09 01:47:42;;;;;;;3.28;1.23;;;28.20;99.90;;;;;;4177425;28;20053;-67
2022/07/09 01:49:49;;;;;;;2.70;1.40;;;28.30;99.90;;;;;;4177442;28;20118;-67
2022/07/09 01:52:13;;;;;;;4.30;1.20;;;28.30;99.90;;;;;;4176852;28;20056;-69
2022/07/09 01:54:23;;;;;;;2.38;1.05;;;28.20;99.90;;;;;;4160397;28;20125;-68
2022/07/09 01:56:29;;;;;;;5.47;1.00;;;28.30;99.90;;;;;;4175658;28;20052;-67
2022/07/09 01:58:36;;;;;;;1.23;0.88;;;28.20;99.90;;;;;;4176452;28;20049;-68
2022/07/09 02:00:46;;;;;;;2.08;0.95;;;28.30;99.90;;;;;;4176728;28;20488;-68
2022/07/09 02:02:58;;;;;;;2.28;0.98;;;28.40;99.90;;;;;;4160727;28;20045;-69
2022/07/09 02:05:05;;;;;;;5.47;1.00;;;28.50;99.90;;;;;;4177442;28;20053;-68
2022/07/09 02:07:17;;;;;;;4.13;1.20;;;28.60;99.90;;;;;;4176835;28;20049;-68
2022/07/09 02:09:26;;;;;;;3.10;1.48;;;28.80;99.90;;;;;;4176236;28;20164;-68
2022/07/09 02:11:33;;;;;;;1.58;1.00;;;28.90;99.90;;;;;;4175465;28;20072;-69
2022/07/09 02:13:42;;;;;;;2.28;0.90;;;29.10;99.90;;;;;;4177190;28;20298;-68
2022/07/09 02:15:51;;;;;;;5.20;1.17;;;29.20;99.90;;;;;;4143011;28;20056;-69
2022/07/09 02:17:58;;;;;;;2.95;1.35;;;29.20;99.90;;;;;;4176526;28;20451;-69
2022/07/09 02:20:08;;;;;;;6.15;1.20;;;29.20;99.90;;;;;;4160543;28;20131;-68
2022/07/09 02:22:35;;;;;;;3.15;1.10;;;29.30;99.90;;;;;;4149478;28;20057;-68
2022/07/09 02:24:41;;;;;;;1.60;0.90;;;29.20;99.90;;;;;;4176883;28;20071;-69
2022/07/09 02:26:49;;;;;;;2.20;1.25;;;29.30;99.90;;;;;;4142887;28;20050;-69
2022/07/09 02:28:59;;;;;;;2.15;0.93;;;29.40;99.90;;;;;;4142781;28;20068;-69
2022/07/09 02:31:12;;;;;;;3.08;1.15;;;29.30;99.90;;;;;;4175489;28;20099;-68
2022/07/09 02:33:33;;;;;;;3.15;0.95;;;29.10;99.90;;;;;;4175687;28;20059;-68
2022/07/09 02:35:53;;;;;;;2.17;1.00;;;28.90;99.90;;;;;;4177117;28;20060;-69
2022/07/09 02:37:59;;;;;;;2.33;1.05;;;29.00;99.90;;;;;;4177278;28;20144;-69
2022/07/09 02:40:09;;;;;;;2.20;0.85;;;29.30;99.90;;;;;;4176439;28;20041;-68
2022/07/09 02:42:14;;;;;;;3.15;1.10;;;29.50;99.90;;;;;;4176023;28;20504;-70
2022/07/09 02:44:23;;;;;;;1.25;0.60;;;29.60;99.90;;;;;;4177312;28;20488;-69
2022/07/09 02:46:36;;;;;;;3.15;0.70;;;29.50;99.90;;;;;;4191054;28;20600;-70
2022/07/09 02:48:46;;;;;;;2.72;1.10;;;29.50;99.90;;;;;;4158743;28;20432;-69
2022/07/09 02:51:00;;;;;;;2.40;0.90;;;29.70;99.90;;;;;;4190507;28;20052;-69
2022/07/09 02:53:08;;;;;;;2.22;0.93;;;29.60;99.90;;;;;;4191195;28;20057;-69
2022/07/09 02:55:35;;;;;;;2.38;0.80;;;29.60;99.90;;;;;;4175654;28;20057;-68
2022/07/09 02:57:52;;;;;;;1.50;0.80;;;29.60;99.90;;;;;;4176014;28;20396;-70
2022/07/09 02:59:57;;;;;;;2.30;0.90;;;29.70;99.90;;;;;;4175695;28;20041;-69
2022/07/09 03:02:04;;;;;;;1.92;0.90;;;29.80;99.90;;;;;;4175749;28;20090;-70
2022/07/09 03:04:13;;;;;;;2.67;0.88;;;29.70;99.90;;;;;;4175578;28;20056;-69
2022/07/09 03:06:20;;;;;;;1.75;0.75;;;29.40;99.90;;;;;;4175126;28;20506;-69
2022/07/09 03:08:25;;;;;;;2.70;0.88;;;29.50;99.90;;;;;;4176340;28;20076;-69
2022/07/09 03:10:33;;;;;;;3.15;0.88;;;29.60;99.90;;;;;;4176224;28;20140;-68
2022/07/09 03:12:51;;;;;;;3.97;1.00;;;29.70;99.90;;;;;;4174489;28;20049;-69
2022/07/09 03:15:04;;;;;;;4.38;0.80;;;29.60;99.90;;;;;;4175592;28;20060;-69
2022/07/09 03:17:11;;;;;;;1.30;0.80;;;29.70;99.90;;;;;;4142840;28;20046;-69
2022/07/09 03:19:29;;;;;;;2.47;0.80;;;29.80;99.90;;;;;;4175673;28;20049;-69
2022/07/09 03:21:56;;;;;;;3.05;0.70;;;29.40;99.90;;;;;;4160845;28;20046;-69
2022/07/09 03:24:08;;;;;;;1.98;0.75;;;29.70;99.90;;;;;;4175632;28;20041;-69
2022/07/09 03:26:14;;;;;;;2.63;0.88;;;29.70;99.90;;;;;;4175930;28;20106;-69
2022/07/09 03:28:20;;;;;;;2.75;0.75;;;29.60;99.90;;;;;;4158558;28;20523;-70
2022/07/09 03:30:25;;;;;;;1.80;0.70;;;29.90;99.90;;;;;;4160227;28;20385;-69
2022/07/09 03:32:30;;;;;;;1.33;0.80;;;30.10;99.90;;;;;;4170808;28;20049;-69
2022/07/09 03:34:36;;;;;;;1.50;0.80;;;30.30;99.90;;;;;;4143163;28;20050;-69
2022/07/09 03:36:41;;;;;;;2.08;1.00;;;30.30;99.90;;;;;;4175332;28;20504;-69
2022/07/09 03:38:48;;;;;;;1.60;0.60;;;30.10;99.90;;;;;;4159488;28;20208;-68
2022/07/09 03:40:56;;;;;;;2.33;0.60;;;30.10;99.90;;;;;;4176501;28;20033;-68
2022/07/09 03:43:01;;;;;;;3.35;0.90;;;30.10;99.90;;;;;;4174087;28;20041;-68
2022/07/09 03:45:10;;;;;;;1.83;0.80;;;30.10;99.40;;;;;;4159392;28;20129;-67
2022/07/09 03:47:20;;;;;;;13.00;9.60;;;30.10;99.90;;;;;;4174258;28;20077;-68
2022/07/09 03:49:30;;;;;;;10.77;7.95;;;30.20;99.90;;;;;;4175130;28;20057;-68
2022/07/09 03:51:38;;;;;;;5.10;1.83;;;30.30;99.60;;;;;;4174464;28;20135;-70
2022/07/09 03:54:19;;;;;;;6.78;4.53;;;30.60;98.80;;;;;;4157526;28;20080;-69
2022/07/09 03:56:37;;;;;;;4.60;2.78;;;30.50;98.90;;;;;;4156820;28;20060;-68
2022/07/09 03:58:46;;;;;;;3.08;2.08;;;30.60;99.20;;;;;;4141269;28;20078;-69
2022/07/09 04:00:57;;;;;;;2.47;1.00;;;30.60;98.90;;;;;;4157243;28;20042;-69
2022/07/09 04:03:05;;;;;;;2.05;0.70;;;30.60;98.70;;;;;;4140790;28;20513;-70
2022/07/09 04:05:17;;;;;;;4.78;1.00;;;30.60;99.60;;;;;;4139940;28;20049;-69
2022/07/09 04:07:26;;;;;;;2.38;1.17;;;30.50;98.70;;;;;;4139385;28;20076;-69
2022/07/09 04:09:31;;;;;;;2.97;1.52;;;30.30;99.10;;;;;;4141230;28;20064;-68
2022/07/09 04:11:36;;;;;;;1.88;1.05;;;30.50;99.20;;;;;;4140458;28;20042;-68
2022/07/09 04:13:43;;;;;;;1.90;1.00;;;30.60;99.10;;;;;;4124324;28;20065;-66
2022/07/09 04:15:48;;;;;;;3.20;0.80;;;30.60;99.50;;;;;;4124495;28;20042;-65
2022/07/09 04:17:55;;;;;;;2.33;1.00;;;30.60;98.60;;;;;;4124175;28;20050;-66
2022/07/09 04:20:01;;;;;;;3.28;0.60;;;30.60;98.90;;;;;;4140583;28;20061;-65
2022/07/09 04:22:07;;;;;;;2.38;0.65;;;30.70;97.70;;;;;;4140277;28;20058;-64
2022/07/09 04:24:17;;;;;;;2.88;1.17;;;30.60;98.00;;;;;;4141310;28;20068;-65
2022/07/09 04:26:25;;;;;;;1.80;0.70;;;30.90;98.80;;;;;;4158563;28;20568;-66
2022/07/09 04:28:31;;;;;;;1.55;0.75;;;31.20;98.50;;;;;;4165355;28;20453;-65
2022/07/09 04:30:59;;;;;;;1.90;0.60;;;31.40;98.50;;;;;;4174969;28;20049;-65
2022/07/09 04:33:13;;;;;;;2.08;0.63;;;31.60;98.60;;;;;;4158592;28;20120;-65
2022/07/09 04:35:23;;;;;;;2.33;0.70;;;31.60;97.00;;;;;;4159007;28;20041;-66
2022/07/09 04:37:29;;;;;;;2.67;1.30;;;31.50;97.70;;;;;;4157561;28;20083;-66
2022/07/09 04:39:36;;;;;;;1.75;0.75;;;31.30;97.40;;;;;;4139965;28;20058;-64
2022/07/09 04:41:41;;;;;;;3.30;0.80;;;31.10;97.50;;;;;;4157420;28;20085;-66
2022/07/09 04:43:46;;;;;;;2.35;0.80;;;31.10;98.00;;;;;;4156731;28;20496;-64
2022/07/09 04:45:51;;;;;;;2.60;0.85;;;31.30;97.80;;;;;;4157326;28;20046;-65
2022/07/09 04:47:58;;;;;;;1.30;0.65;;;31.30;97.40;;;;;;4160029;28;20414;-65
2022/07/09 04:50:05;;;;;;;4.43;1.05;;;31.20;98.30;;;;;;4176270;28;20056;-65
2022/07/09 04:52:16;;;;;;;1.55;0.80;;;31.10;96.70;;;;;;4160095;28;20065;-65
2022/07/09 04:54:21;;;;;;;1.05;0.70;;;31.20;97.60;;;;;;4162893;28;20107;-65
2022/07/09 04:56:26;;;;;;;1.17;0.47;;;31.40;97.70;;;;;;4160492;28;20038;-65
2022/07/09 04:58:36;;;;;;;2.40;0.73;;;31.50;97.60;;;;;;4168643;28;20045;-65
2022/07/09 05:00:41;;;;;;;1.90;0.80;;;31.50;97.60;;;;;;4177095;28;20037;-64
2022/07/09 05:02:47;;;;;;;2.75;1.10;;;31.70;98.00;;;;;;4177738;28;20582;-65
2022/07/09 05:04:54;;;;;;;1.90;0.90;;;31.70;97.20;;;;;;4178826;28;20507;-65
2022/07/09 05:06:59;;;;;;;2.80;0.90;;;31.50;97.00;;;;;;4176170;28;20538;-65
2022/07/09 05:09:05;;;;;;;4.05;0.75;;;31.30;97.80;;;;;;4161278;28;20049;-65
2022/07/09 05:11:12;;;;;;;1.90;0.85;;;31.10;97.90;;;;;;4177096;28;20053;-65
2022/07/09 05:13:20;;;;;;;5.72;0.80;;;31.00;98.00;;;;;;4160859;28;20516;-66
2022/07/09 05:15:30;;;;;;;2.35;0.93;;;31.00;98.10;;;;;;4178392;28;20049;-65
2022/07/09 05:17:35;;;;;;;2.53;0.60;;;31.10;97.70;;;;;;4176424;28;20168;-66
2022/07/09 05:19:40;;;;;;;1.75;0.80;;;31.20;98.10;;;;;;4161354;28;20281;-66
2022/07/09 05:21:46;;;;;;;1.42;0.65;;;31.40;97.80;;;;;;4177185;28;20403;-67
2022/07/09 05:23:53;;;;;;;3.58;0.77;;;31.40;98.00;;;;;;4178573;28;20124;-65
2022/07/09 05:25:58;;;;;;;1.60;0.70;;;31.50;97.80;;;;;;4177971;28;20049;-66
2022/07/09 05:28:06;;;;;;;0.95;0.60;;;31.70;97.60;;;;;;4176263;28;20057;-66
2022/07/09 05:30:15;;;;;;;1.20;0.80;;;31.70;98.10;;;;;;4176910;28;20468;-67
2022/07/09 05:32:23;;;;;;;3.42;0.82;;;31.60;97.40;;;;;;4176066;28;20496;-67
2022/07/09 05:34:30;;;;;;;1.77;0.73;;;31.60;97.40;;;;;;4178270;28;20045;-66
2022/07/09 05:36:38;;;;;;;1.35;0.80;;;31.60;97.10;;;;;;4176170;28;20052;-66
2022/07/09 05:38:43;;;;;;;2.17;1.00;;;31.90;96.90;;;;;;4177925;28;20087;-66
2022/07/09 05:40:52;;;;;;;0.77;0.50;;;32.10;97.30;;;;;;4178140;28;20116;-66
2022/07/09 05:42:59;;;;;;;0.98;0.60;;;32.30;96.20;;;;;;4174524;28;20132;-66
2022/07/09 05:45:05;;;;;;;1.13;0.65;;;32.10;96.40;;;;;;4177831;28;20060;-66
2022/07/09 05:47:12;;;;;;;1.95;0.70;;;32.30;96.60;;;;;;4176000;28;20399;-66
2022/07/09 05:49:19;;;;;;;3.08;0.80;;;32.50;97.00;;;;;;4159444;28;20473;-66
2022/07/09 05:51:24;;;;;;;1.48;0.40;;;32.60;96.60;;;;;;4177629;28;20064;-66
2022/07/09 05:53:31;;;;;;;2.28;0.75;;;32.70;96.30;;;;;;4177149;28;20410;-66
2022/07/09 05:55:38;;;;;;;2.58;1.05;;;32.90;95.90;;;;;;4177685;28;20461;-66
2022/07/09 05:57:43;;;;;;;0.80;0.65;;;32.90;96.20;;;;;;4176891;28;20151;-66
2022/07/09 05:59:49;;;;;;;1.83;0.80;;;33.00;95.00;;;;;;4161325;28;20092;-66
2022/07/09 06:01:56;;;;;;;6.57;0.68;;;33.00;94.80;;;;;;4125482;28;20585;-66
2022/07/09 06:04:02;;;;;;;1.67;0.70;;;33.10;95.30;;;;;;4161579;28;20072;-66
2022/07/09 06:06:09;;;;;;;2.88;0.80;;;33.00;95.40;;;;;;4168613;28;20049;-66
2022/07/09 06:08:15;;;;;;;1.67;0.70;;;32.70;95.30;;;;;;4175449;28;20529;-66
2022/07/09 06:10:19;;;;;;;1.92;0.73;;;32.60;95.80;;;;;;4160235;28;20076;-65
2022/07/09 06:12:26;;;;;;;1.50;0.60;;;32.60;95.90;;;;;;4176676;28;20088;-65
2022/07/09 06:14:33;;;;;;;1.70;0.75;;;32.60;95.80;;;;;;4176273;28;20056;-66
2022/07/09 06:16:38;;;;;;;1.23;0.63;;;32.60;95.80;;;;;;4175307;28;20045;-66
2022/07/09 06:18:44;;;;;;;2.38;0.73;;;32.50;95.80;;;;;;4177135;28;20106;-66
2022/07/09 06:20:51;;;;;;;1.42;0.57;;;32.40;95.80;;;;;;4158728;28;20038;-66
2022/07/09 06:22:56;;;;;;;1.90;0.70;;;32.30;95.80;;;;;;4175136;28;20636;-66
2022/07/09 06:25:03;;;;;;;1.90;0.73;;;32.30;95.80;;;;;;4177830;28;20075;-66
2022/07/09 06:27:10;;;;;;;1.27;0.60;;;32.30;96.00;;;;;;4177008;28;20041;-66
2022/07/09 06:29:15;;;;;;;1.48;0.90;;;32.30;96.00;;;;;;4177479;28;20319;-67
2022/07/09 06:31:22;;;;;;;1.08;0.70;;;32.20;96.00;;;;;;4175557;28;20656;-67
2022/07/09 06:33:30;;;;;;;5.07;1.10;;;32.20;96.20;;;;;;4141742;28;20194;-67
2022/07/09 06:35:34;;;;;;;6.45;1.50;;;32.20;96.50;;;;;;4176025;28;20156;-66
2022/07/09 06:37:41;;;;;;;4.57;1.30;;;32.10;97.10;;;;;;4176353;28;20580;-67
2022/07/09 06:39:50;;;;;;;2.80;1.52;;;32.10;97.70;;;;;;4175843;28;20049;-66
2022/07/09 06:42:02;;;;;;;6.97;1.77;;;32.00;97.70;;;;;;4176243;28;20348;-66
2022/07/09 06:44:11;;;;;;;7.88;1.95;;;32.10;98.50;;;;;;4176047;28;20092;-66
2022/07/09 06:46:21;;;;;;;9.10;1.67;;;32.10;98.90;;;;;;4176959;28;20053;-67
2022/07/09 06:48:26;;;;;;;11.93;2.05;;;32.00;98.60;;;;;;4175788;28;20041;-66
2022/07/09 06:50:32;;;;;;;11.98;1.83;;;32.00;98.70;;;;;;4176668;28;20045;-67
2022/07/09 06:52:39;;;;;;;17.95;3.15;;;32.00;98.80;;;;;;4174315;28;20424;-66
2022/07/09 06:54:44;;;;;;;8.40;2.92;;;32.00;98.90;;;;;;4176899;28;20057;-66
2022/07/09 06:56:49;;;;;;;7.72;2.08;;;31.80;99.20;;;;;;4171876;28;20068;-67
2022/07/09 06:58:56;;;;;;;7.45;2.10;;;31.70;99.00;;;;;;4176140;28;20061;-67
2022/07/09 07:01:01;;;;;;;6.18;1.70;;;31.70;99.30;;;;;;4174292;28;20033;-67
2022/07/09 07:03:07;;;;;;;5.53;1.52;;;31.70;99.10;;;;;;4189972;28;20036;-66
2022/07/09 07:05:13;;;;;;;6.55;1.50;;;31.70;98.80;;;;;;4175369;28;20102;-66
2022/07/09 07:07:21;;;;;;;3.72;1.40;;;31.80;98.80;;;;;;4172465;28;20041;-66
2022/07/09 07:09:30;;;;;;;2.88;1.20;;;32.20;98.50;;;;;;4173420;28;20049;-65
2022/07/09 07:11:36;;;;;;;1.70;0.85;;;32.50;98.20;;;;;;4173950;28;20057;-66
2022/07/09 07:13:40;;;;;;;3.17;1.00;;;32.60;98.20;;;;;;4175194;28;20051;-65
2022/07/09 07:15:49;;;;;;;5.93;1.08;;;32.90;97.70;;;;;;4174593;28;20132;-66
2022/07/09 07:17:57;;;;;;;2.90;1.23;;;33.00;97.60;;;;;;4173204;28;20081;-66
2022/07/09 07:20:02;;;;;;;2.17;1.00;;;33.10;97.70;;;;;;4176074;28;20045;-65
2022/07/09 07:22:10;;;;;;;2.88;0.90;;;33.20;97.70;;;;;;4175539;28;20621;-65
2022/07/09 07:24:16;;;;;;;4.80;1.20;;;33.30;97.40;;;;;;4138385;28;20141;-66
2022/07/09 07:26:22;;;;;;;3.58;1.00;;;33.40;97.20;;;;;;4175809;28;20432;-66
2022/07/09 07:28:26;;;;;;;2.38;1.05;;;33.40;97.10;;;;;;4174983;28;20041;-65
2022/07/09 07:30:36;;;;;;;3.15;1.15;;;33.40;96.90;;;;;;4176422;28;20048;-65
2022/07/09 07:32:40;;;;;;;4.03;1.42;;;33.40;97.00;;;;;;4175189;28;20060;-65
2022/07/09 07:34:45;;;;;;;3.35;1.10;;;33.50;96.70;;;;;;4174394;28;20467;-65
2022/07/09 07:36:51;;;;;;;3.50;1.00;;;33.60;96.10;;;;;;4175457;28;20164;-65
2022/07/09 07:38:56;;;;;;;1.27;0.60;;;33.60;96.20;;;;;;4162560;28;20416;-65
2022/07/09 07:41:02;;;;;;;1.73;0.90;;;33.40;95.90;;;;;;4163210;28;20535;-65
2022/07/09 07:43:12;;;;;;;3.67;0.70;;;33.40;96.20;;;;;;4171269;28;20458;-66
2022/07/09 07:45:17;;;;;;;2.97;0.90;;;33.40;96.30;;;;;;4159224;28;20046;-65
2022/07/09 07:47:27;;;;;;;2.95;1.02;;;33.40;96.50;;;;;;4160042;28;20038;-65
2022/07/09 07:49:38;;;;;;;1.80;0.77;;;33.40;96.70;;;;;;4172018;28;20415;-65
2022/07/09 07:51:43;;;;;;;4.22;1.00;;;33.60;96.60;;;;;;4188188;28;20774;-65
2022/07/09 07:53:48;;;;;;;1.23;0.60;;;33.70;96.40;;;;;;4162412;28;20659;-66
2022/07/09 07:55:52;;;;;;;1.05;0.68;;;33.70;96.30;;;;;;4162578;28;20047;-66
2022/07/09 07:57:58;;;;;;;1.42;0.80;;;33.80;96.00;;;;;;4177843;28;20069;-66
2022/07/09 08:00:04;;;;;;;2.50;0.68;;;33.90;95.90;;;;;;4166429;28;20447;-65
2022/07/09 08:02:14;;;;;;;4.50;1.15;;;33.80;95.90;;;;;;4165159;28;20333;-66
2022/07/09 08:04:19;;;;;;;2.45;1.10;;;33.70;95.80;;;;;;4180778;28;20357;-65
2022/07/09 08:06:25;;;;;;;3.88;1.10;;;33.50;95.50;;;;;;4165200;28;20083;-65
2022/07/09 08:08:30;;;;;;;1.45;1.05;;;33.40;95.70;;;;;;4164776;28;20048;-66
2022/07/09 08:10:35;;;;;;;1.98;0.90;;;33.30;95.60;;;;;;4164319;28;20128;-65
2022/07/09 08:12:40;;;;;;;5.20;1.25;;;33.20;95.80;;;;;;4163761;28;20195;-65
2022/07/09 08:14:44;;;;;;;1.80;1.08;;;33.10;95.80;;;;;;4166931;28;20053;-65
2022/07/09 08:16:49;;;;;;;4.93;1.00;;;33.00;96.00;;;;;;4167171;28;20422;-65
2022/07/09 08:18:54;;;;;;;4.05;1.23;;;32.80;96.10;;;;;;4166945;28;20123;-65
2022/07/09 08:21:00;;;;;;;2.22;1.13;;;32.70;96.30;;;;;;4183998;28;20051;-66
2022/07/09 08:23:05;;;;;;;4.28;1.40;;;32.60;96.50;;;;;;4174256;28;20445;-65
2022/07/09 08:25:10;;;;;;;3.50;1.40;;;32.50;96.60;;;;;;4175532;28;20469;-65
2022/07/09 08:27:17;;;;;;;3.17;1.08;;;32.40;96.70;;;;;;4173669;28;20040;-64
2022/07/09 08:29:22;;;;;;;1.73;0.90;;;32.20;96.30;;;;;;4172676;28;20053;-65
2022/07/09 08:31:27;;;;;;;2.28;1.33;;;31.30;96.10;;;;;;4185955;28;20509;-65
2022/07/09 08:33:32;;;;;;;5.30;2.40;;;30.80;96.80;;;;;;4169932;28;20136;-66
2022/07/09 08:35:39;;;;;;;23.77;21.33;;;30.60;97.40;;;;;;4168960;28;20053;-66
2022/07/09 08:37:46;;;;;;;32.33;26.50;;;30.70;97.90;;;;;;4169191;28;20554;-67
2022/07/09 08:39:53;;;;;;;23.42;19.42;;;30.40;98.80;;;;;;4170597;28;20049;-66
2022/07/09 08:41:59;;;;;;;5.10;3.60;;;30.40;99.60;;;;;;4177168;28;20068;-66
2022/07/09 08:44:05;;;;;;;8.20;3.30;;;29.80;99.90;;;;;;4191665;28;20127;-66
2022/07/09 08:46:12;;;;;;;5.82;2.45;;;29.60;99.90;;;;;;4110830;28;20050;-65
2022/07/09 08:48:18;;;;;;;7.43;4.05;;;29.60;99.90;;;;;;4128762;28;20097;-64
2022/07/09 08:50:44;;;;;;;7.03;2.80;;;29.50;99.90;;;;;;4113871;28;20479;-66
2022/07/09 08:52:53;;;;;;;5.43;1.92;;;29.20;99.90;;;;;;4126595;28;20515;-65
2022/07/09 08:54:57;;;;;;;7.13;1.90;;;29.20;99.90;;;;;;4131357;28;20050;-66
2022/07/09 08:57:05;;;;;;;5.22;1.50;;;29.20;99.90;;;;;;4109379;28;20128;-67
2022/07/09 08:59:09;;;;;;;4.75;1.10;;;29.10;99.90;;;;;;4125289;28;20034;-66
2022/07/09 09:01:15;;;;;;;5.28;1.27;;;29.10;99.90;;;;;;4126324;28;20437;-66
2022/07/09 09:03:22;;;;;;;5.07;1.30;;;29.00;99.90;;;;;;4094038;28;20047;-67
2022/07/09 09:05:29;;;;;;;5.25;1.55;;;28.80;99.90;;;;;;4095786;28;20422;-62
2022/07/09 09:07:33;;;;;;;3.92;1.20;;;28.80;99.90;;;;;;4106310;28;20047;-64
2022/07/09 09:09:38;;;;;;;5.20;1.27;;;28.50;99.90;;;;;;4109422;28;20046;-63
2022/07/09 09:11:49;;;;;;;2.80;1.15;;;28.40;99.90;;;;;;4062329;29;20135;-64
2022/07/09 09:13:54;;;;;;;2.72;0.90;;;28.10;99.90;;;;;;4109110;28;20042;-64
2022/07/09 09:16:06;;;;;;;3.05;0.60;;;28.20;99.90;;;;;;4109555;28;20505;-64
2022/07/09 09:18:13;;;;;;;2.53;0.95;;;28.20;99.90;;;;;;4106621;28;20195;-63
2022/07/09 09:20:22;;;;;;;4.18;0.85;;;28.20;99.90;;;;;;4133569;28;20140;-63
2022/07/09 09:22:32;;;;;;;3.22;0.80;;;28.30;99.90;;;;;;4124489;28;20050;-63
2022/07/09 09:24:53;;;;;;;1.73;0.80;;;28.30;99.90;;;;;;4144588;28;20092;-63
2022/07/09 09:27:14;;;;;;;2.35;0.73;;;28.30;99.90;;;;;;4154452;28;20080;-63
2022/07/09 09:29:23;;;;;;;2.72;1.00;;;28.30;99.90;;;;;;4152589;28;20479;-62
2022/07/09 09:31:37;;;;;;;2.20;0.90;;;28.40;99.90;;;;;;4151500;28;20189;-63
2022/07/09 09:33:44;;;;;;;3.22;0.90;;;28.40;99.90;;;;;;4149383;28;20069;-63
2022/07/09 09:35:51;;;;;;;4.13;0.60;;;28.50;99.90;;;;;;4135167;28;20100;-62
2022/07/09 09:37:58;;;;;;;2.78;0.70;;;28.50;99.90;;;;;;4122075;28;20576;-63
2022/07/09 09:40:11;;;;;;;3.65;0.75;;;28.50;99.90;;;;;;4147115;28;20054;-63
2022/07/09 09:42:17;;;;;;;2.03;0.50;;;28.60;99.90;;;;;;4149570;28;20046;-62
2022/07/09 09:44:25;;;;;;;2.92;0.85;;;28.50;99.90;;;;;;4155467;28;20041;-62
2022/07/09 09:46:32;;;;;;;3.13;0.95;;;28.50;99.90;;;;;;4163831;28;20419;-63
2022/07/09 09:48:39;;;;;;;1.90;0.80;;;28.40;99.90;;;;;;4134323;28;20047;-62
2022/07/09 09:50:45;;;;;;;3.70;1.15;;;28.30;99.90;;;;;;4125595;28;20439;-63
2022/07/09 09:53:09;;;;;;;2.55;0.82;;;28.30;99.90;;;;;;4131901;28;20054;-63
2022/07/09 09:55:18;;;;;;;2.15;0.75;;;28.40;99.90;;;;;;4151530;28;20080;-63
2022/07/09 09:57:28;;;;;;;4.00;0.60;;;28.40;99.90;;;;;;4174293;28;20045;-63
2022/07/09 09:59:52;;;;;;;3.35;1.05;;;28.40;99.90;;;;;;4147119;28;20051;-61
2022/07/09 10:02:17;;;;;;;5.85;2.15;;;28.30;99.90;;;;;;4145056;28;20065;-63
2022/07/09 10:04:25;;;;;;;5.97;2.30;;;28.30;99.90;;;;;;4175798;28;20159;-63
2022/07/09 10:06:33;;;;;;;4.45;1.67;;;28.20;99.90;;;;;;4108115;28;20046;-63
2022/07/09 10:08:49;;;;;;;1.90;1.20;;;28.20;99.90;;;;;;4146842;28;20747;-64
2022/07/09 10:11:04;;;;;;;2.92;1.30;;;28.20;99.90;;;;;;4157741;28;20049;-63
2022/07/09 10:13:22;;;;;;;3.50;1.20;;;28.20;99.90;;;;;;4171455;28;20217;-64
2022/07/09 10:15:48;;;;;;;3.83;1.05;;;28.30;99.90;;;;;;4169625;28;20045;-64
2022/07/09 10:18:11;;;;;;;4.23;1.40;;;28.20;99.90;;;;;;4166094;28;20447;-63
2022/07/09 10:20:17;;;;;;;2.65;1.10;;;28.20;99.90;;;;;;4157757;28;20037;-63
2022/07/09 10:22:41;;;;;;;2.42;1.10;;;28.00;99.90;;;;;;4164004;28;20049;-63
2022/07/09 10:25:05;;;;;;;1.38;0.65;;;27.90;99.90;;;;;;4165009;28;20053;-63
2022/07/09 10:27:16;;;;;;;1.35;0.65;;;27.80;99.90;;;;;;4169220;28;20066;-63
2022/07/09 10:29:26;;;;;;;3.40;0.73;;;28.00;99.90;;;;;;4175204;28;20063;-64
2022/07/09 10:31:34;;;;;;;2.55;0.73;;;27.90;99.90;;;;;;4170954;28;20377;-62
2022/07/09 10:33:50;;;;;;;0.60;0.55;;;28.00;99.90;;;;;;4167001;28;20331;-63
2022/07/09 10:35:57;;;;;;;2.10;0.90;;;27.80;99.90;;;;;;4137859;28;20080;-63
2022/07/09 10:38:05;;;;;;;1.15;0.35;;;27.60;99.90;;;;;;4154039;28;20049;-64
2022/07/09 10:40:15;;;;;;;1.45;0.60;;;27.60;99.90;;;;;;4154379;28;20037;-64
2022/07/09 10:42:41;;;;;;;2.95;0.90;;;27.70;99.90;;;;;;4137687;28;20806;-64
2022/07/09 10:45:01;;;;;;;1.55;0.77;;;27.80;99.90;;;;;;4154558;28;20067;-63
2022/07/09 10:47:10;;;;;;;5.50;1.30;;;27.90;99.90;;;;;;4153119;28;22000;-62
2022/07/09 10:49:19;;;;;;;1.33;0.77;;;28.00;99.90;;;;;;4148529;28;20121;-64
2022/07/09 10:51:30;;;;;;;2.42;0.90;;;27.90;99.90;;;;;;4150799;28;20057;-63
2022/07/09 10:53:35;;;;;;;1.92;0.80;;;28.00;99.90;;;;;;4139826;28;20049;-62
2022/07/09 10:55:49;;;;;;;2.92;1.08;;;28.00;99.90;;;;;;4153184;28;20050;-62
2022/07/09 10:57:58;;;;;;;1.95;0.70;;;28.00;99.90;;;;;;4132079;28;20046;-63
2022/07/09 11:00:16;;;;;;;1.10;0.90;;;28.00;99.90;;;;;;4133098;28;20166;-63
2022/07/09 11:02:30;;;;;;;2.05;0.88;;;28.00;99.90;;;;;;4106198;28;20086;-63
2022/07/09 11:04:53;;;;;;;2.88;0.98;;;28.00;99.90;;;;;;4095126;28;20092;-62
2022/07/09 11:07:24;;;;;;;2.50;0.75;;;28.00;99.90;;;;;;4101355;28;20069;-64
2022/07/09 11:09:49;;;;;;;3.00;0.75;;;27.80;99.90;;;;;;4132728;28;20107;-62